sensor_id;sensor_type;location;lat;lon;timestamp;P1;durP1;ratioP1;P2;durP2;ratioP2
38123;SDS011;23934;47.998;9.832;2024-02-14T00:01:03;11.10;;;4.15;;
38123;SDS011;23934;47.998;9.832;2024-02-14T00:03:29;16.20;;;4.75;;
38123;SDS011;23934;47.998;9.832;2024-02-14T00:05:55;16.55;;;4.30;;
38123;SDS011;23934;47.998;9.832;2024-02-14T00:08:22;12.70;;;5.07;;
38123;SDS011;23934;47.998;9.832;2024-02-14T00:10:48;15.00;;;5.15;;
38123;SDS011;23934;47.998;9.832;2024-02-14T00:13:14;10.13;;;4.65;;
38123;SDS011;23934;47.998;9.832;2024-02-14T00:15:43;11.55;;;4.43;;
38123;SDS011;23934;47.998;9.832;2024-02-14T00:18:10;18.20;;;5.35;;
38123;SDS011;23934;47.998;9.832;2024-02-14T00:20:36;16.05;;;5.57;;
38123;SDS011;23934;47.998;9.832;2024-02-14T00:23:03;12.43;;;5.65;;
38123;SDS011;23934;47.998;9.832;2024-02-14T00:25:29;21.48;;;6.05;;
38123;SDS011;23934;47.998;9.832;2024-02-14T00:27:55;14.25;;;5.28;;
38123;SDS011;23934;47.998;9.832;2024-02-14T00:30:21;19.35;;;4.90;;
38123;SDS011;23934;47.998;9.832;2024-02-14T00:32:50;14.73;;;4.70;;
38123;SDS011;23934;47.998;9.832;2024-02-14T00:35:16;14.27;;;4.65;;
38123;SDS011;23934;47.998;9.832;2024-02-14T00:37:42;9.05;;;4.05;;
38123;SDS011;23934;47.998;9.832;2024-02-14T00:40:08;13.50;;;3.78;;
38123;SDS011;23934;47.998;9.832;2024-02-14T00:42:34;18.33;;;4.85;;
38123;SDS011;23934;47.998;9.832;2024-02-14T00:45:00;12.45;;;3.83;;
38123;SDS011;23934;47.998;9.832;2024-02-14T00:47:28;13.35;;;3.95;;
38123;SDS011;23934;47.998;9.832;2024-02-14T00:49:53;14.77;;;3.67;;
38123;SDS011;23934;47.998;9.832;2024-02-14T00:52:19;9.90;;;3.83;;
38123;SDS011;23934;47.998;9.832;2024-02-14T00:54:46;10.30;;;3.67;;
38123;SDS011;23934;47.998;9.832;2024-02-14T00:57:12;9.80;;;3.92;;
38123;SDS011;23934;47.998;9.832;2024-02-14T00:59:38;11.98;;;3.78;;
38123;SDS011;23934;47.998;9.832;2024-02-14T01:02:04;9.00;;;3.95;;
38123;SDS011;23934;47.998;9.832;2024-02-14T01:04:30;9.05;;;3.20;;
38123;SDS011;23934;47.998;9.832;2024-02-14T01:06:56;14.05;;;3.67;;
38123;SDS011;23934;47.998;9.832;2024-02-14T01:09:23;7.97;;;3.47;;
38123;SDS011;23934;47.998;9.832;2024-02-14T01:11:49;9.55;;;3.55;;
38123;SDS011;23934;47.998;9.832;2024-02-14T01:14:15;8.85;;;3.70;;
38123;SDS011;23934;47.998;9.832;2024-02-14T01:16:42;11.10;;;3.47;;
38123;SDS011;23934;47.998;9.832;2024-02-14T01:19:08;11.57;;;3.53;;
38123;SDS011;23934;47.998;9.832;2024-02-14T01:21:34;10.68;;;3.38;;
38123;SDS011;23934;47.998;9.832;2024-02-14T01:24:00;9.95;;;3.20;;
38123;SDS011;23934;47.998;9.832;2024-02-14T01:26:26;9.57;;;3.15;;
38123;SDS011;23934;47.998;9.832;2024-02-14T01:28:52;8.88;;;3.67;;
38123;SDS011;23934;47.998;9.832;2024-02-14T01:31:18;5.53;;;2.78;;
38123;SDS011;23934;47.998;9.832;2024-02-14T01:33:45;12.52;;;3.35;;
38123;SDS011;23934;47.998;9.832;2024-02-14T01:36:11;11.48;;;3.03;;
38123;SDS011;23934;47.998;9.832;2024-02-14T01:38:37;6.03;;;2.70;;
38123;SDS011;23934;47.998;9.832;2024-02-14T01:41:03;7.03;;;2.63;;
38123;SDS011;23934;47.998;9.832;2024-02-14T01:43:29;8.63;;;2.75;;
38123;SDS011;23934;47.998;9.832;2024-02-14T01:45:56;9.45;;;2.88;;
38123;SDS011;23934;47.998;9.832;2024-02-14T01:48:23;6.93;;;3.05;;
38123;SDS011;23934;47.998;9.832;2024-02-14T01:50:49;6.43;;;2.65;;
38123;SDS011;23934;47.998;9.832;2024-02-14T01:53:16;12.30;;;3.00;;
38123;SDS011;23934;47.998;9.832;2024-02-14T01:55:42;5.70;;;2.63;;
38123;SDS011;23934;47.998;9.832;2024-02-14T01:58:08;7.57;;;2.67;;
38123;SDS011;23934;47.998;9.832;2024-02-14T02:00:34;6.65;;;2.45;;
38123;SDS011;23934;47.998;9.832;2024-02-14T02:03:00;16.10;;;4.28;;
38123;SDS011;23934;47.998;9.832;2024-02-14T02:05:26;6.65;;;2.67;;
38123;SDS011;23934;47.998;9.832;2024-02-14T02:07:52;9.68;;;3.25;;
38123;SDS011;23934;47.998;9.832;2024-02-14T02:10:19;14.60;;;4.03;;
38123;SDS011;23934;47.998;9.832;2024-02-14T02:12:47;13.68;;;2.80;;
38123;SDS011;23934;47.998;9.832;2024-02-14T02:15:13;12.20;;;4.05;;
38123;SDS011;23934;47.998;9.832;2024-02-14T02:17:40;8.40;;;2.45;;
38123;SDS011;23934;47.998;9.832;2024-02-14T02:20:06;8.75;;;2.53;;
38123;SDS011;23934;47.998;9.832;2024-02-14T02:22:33;6.97;;;2.33;;
38123;SDS011;23934;47.998;9.832;2024-02-14T02:25:03;5.28;;;2.28;;
38123;SDS011;23934;47.998;9.832;2024-02-14T02:27:32;9.32;;;3.35;;
38123;SDS011;23934;47.998;9.832;2024-02-14T02:30:00;11.60;;;3.35;;
38123;SDS011;23934;47.998;9.832;2024-02-14T02:32:26;7.28;;;3.75;;
38123;SDS011;23934;47.998;9.832;2024-02-14T02:34:52;9.23;;;3.50;;
38123;SDS011;23934;47.998;9.832;2024-02-14T02:37:18;11.43;;;4.20;;
38123;SDS011;23934;47.998;9.832;2024-02-14T02:39:44;7.93;;;2.90;;
38123;SDS011;23934;47.998;9.832;2024-02-14T02:42:10;6.15;;;2.85;;
38123;SDS011;23934;47.998;9.832;2024-02-14T02:44:38;6.07;;;2.53;;
38123;SDS011;23934;47.998;9.832;2024-02-14T02:47:04;9.25;;;2.80;;
38123;SDS011;23934;47.998;9.832;2024-02-14T02:49:30;7.35;;;2.35;;
38123;SDS011;23934;47.998;9.832;2024-02-14T02:51:56;9.65;;;2.58;;
38123;SDS011;23934;47.998;9.832;2024-02-14T02:54:22;6.13;;;2.58;;
38123;SDS011;23934;47.998;9.832;2024-02-14T02:56:48;11.25;;;3.13;;
38123;SDS011;23934;47.998;9.832;2024-02-14T02:59:14;5.60;;;2.78;;
38123;SDS011;23934;47.998;9.832;2024-02-14T03:01:42;11.05;;;3.38;;
38123;SDS011;23934;47.998;9.832;2024-02-14T03:04:09;6.53;;;2.92;;
38123;SDS011;23934;47.998;9.832;2024-02-14T03:06:35;9.32;;;3.25;;
38123;SDS011;23934;47.998;9.832;2024-02-14T03:09:01;9.57;;;2.80;;
38123;SDS011;23934;47.998;9.832;2024-02-14T03:11:27;6.00;;;2.55;;
38123;SDS011;23934;47.998;9.832;2024-02-14T03:13:53;7.97;;;2.90;;
38123;SDS011;23934;47.998;9.832;2024-02-14T03:16:20;7.55;;;2.50;;
38123;SDS011;23934;47.998;9.832;2024-02-14T03:18:45;11.68;;;2.70;;
38123;SDS011;23934;47.998;9.832;2024-02-14T03:21:11;6.05;;;2.42;;
38123;SDS011;23934;47.998;9.832;2024-02-14T03:23:37;9.57;;;3.35;;
38123;SDS011;23934;47.998;9.832;2024-02-14T03:26:04;9.40;;;3.55;;
38123;SDS011;23934;47.998;9.832;2024-02-14T03:28:32;10.18;;;3.38;;
38123;SDS011;23934;47.998;9.832;2024-02-14T03:30:58;11.70;;;2.95;;
38123;SDS011;23934;47.998;9.832;2024-02-14T03:33:24;6.10;;;3.00;;
38123;SDS011;23934;47.998;9.832;2024-02-14T03:35:50;4.25;;;2.50;;
38123;SDS011;23934;47.998;9.832;2024-02-14T03:38:25;8.02;;;2.67;;
38123;SDS011;23934;47.998;9.832;2024-02-14T03:40:51;6.93;;;3.00;;
38123;SDS011;23934;47.998;9.832;2024-02-14T03:43:17;5.60;;;2.38;;
38123;SDS011;23934;47.998;9.832;2024-02-14T03:45:44;7.78;;;2.50;;
38123;SDS011;23934;47.998;9.832;2024-02-14T03:48:11;6.75;;;2.40;;
38123;SDS011;23934;47.998;9.832;2024-02-14T03:50:40;9.07;;;2.72;;
38123;SDS011;23934;47.998;9.832;2024-02-14T03:53:07;5.13;;;2.15;;
38123;SDS011;23934;47.998;9.832;2024-02-14T03:55:36;5.68;;;2.83;;
38123;SDS011;23934;47.998;9.832;2024-02-14T03:58:01;6.47;;;1.75;;
38123;SDS011;23934;47.998;9.832;2024-02-14T04:00:28;5.88;;;1.45;;
38123;SDS011;23934;47.998;9.832;2024-02-14T04:02:54;7.55;;;1.90;;
38123;SDS011;23934;47.998;9.832;2024-02-14T04:05:24;5.57;;;1.73;;
38123;SDS011;23934;47.998;9.832;2024-02-14T04:07:50;2.53;;;1.52;;
38123;SDS011;23934;47.998;9.832;2024-02-14T04:10:18;9.07;;;1.80;;
38123;SDS011;23934;47.998;9.832;2024-02-14T04:12:44;6.07;;;1.88;;
38123;SDS011;23934;47.998;9.832;2024-02-14T04:15:10;7.75;;;1.50;;
38123;SDS011;23934;47.998;9.832;2024-02-14T04:17:36;4.80;;;1.67;;
38123;SDS011;23934;47.998;9.832;2024-02-14T04:20:02;7.18;;;2.00;;
38123;SDS011;23934;47.998;9.832;2024-02-14T04:22:28;6.68;;;1.80;;
38123;SDS011;23934;47.998;9.832;2024-02-14T04:24:54;9.77;;;2.13;;
38123;SDS011;23934;47.998;9.832;2024-02-14T04:27:21;6.03;;;2.58;;
38123;SDS011;23934;47.998;9.832;2024-02-14T04:29:47;11.35;;;3.33;;
38123;SDS011;23934;47.998;9.832;2024-02-14T04:32:13;7.80;;;2.72;;
38123;SDS011;23934;47.998;9.832;2024-02-14T04:34:39;7.95;;;2.47;;
38123;SDS011;23934;47.998;9.832;2024-02-14T04:37:06;10.73;;;2.72;;
38123;SDS011;23934;47.998;9.832;2024-02-14T04:39:38;6.43;;;2.03;;
38123;SDS011;23934;47.998;9.832;2024-02-14T04:42:04;5.78;;;2.50;;
38123;SDS011;23934;47.998;9.832;2024-02-14T04:44:30;7.20;;;2.38;;
38123;SDS011;23934;47.998;9.832;2024-02-14T04:46:57;10.20;;;3.42;;
38123;SDS011;23934;47.998;9.832;2024-02-14T04:49:26;11.18;;;3.60;;
38123;SDS011;23934;47.998;9.832;2024-02-14T04:51:54;7.75;;;3.08;;
38123;SDS011;23934;47.998;9.832;2024-02-14T04:54:20;6.95;;;3.05;;
38123;SDS011;23934;47.998;9.832;2024-02-14T04:56:46;6.97;;;2.97;;
38123;SDS011;23934;47.998;9.832;2024-02-14T04:59:12;6.70;;;3.60;;
38123;SDS011;23934;47.998;9.832;2024-02-14T05:01:38;10.25;;;3.30;;
38123;SDS011;23934;47.998;9.832;2024-02-14T05:04:07;8.18;;;2.83;;
38123;SDS011;23934;47.998;9.832;2024-02-14T05:06:33;7.50;;;2.67;;
38123;SDS011;23934;47.998;9.832;2024-02-14T05:08:59;8.95;;;3.25;;
38123;SDS011;23934;47.998;9.832;2024-02-14T05:11:25;8.77;;;3.20;;
38123;SDS011;23934;47.998;9.832;2024-02-14T05:13:51;9.00;;;3.10;;
38123;SDS011;23934;47.998;9.832;2024-02-14T05:16:17;10.27;;;3.72;;
38123;SDS011;23934;47.998;9.832;2024-02-14T05:18:43;9.23;;;2.88;;
38123;SDS011;23934;47.998;9.832;2024-02-14T05:21:10;4.32;;;2.10;;
38123;SDS011;23934;47.998;9.832;2024-02-14T05:23:36;9.55;;;3.55;;
38123;SDS011;23934;47.998;9.832;2024-02-14T05:26:02;7.22;;;3.08;;
38123;SDS011;23934;47.998;9.832;2024-02-14T05:28:28;11.10;;;3.20;;
38123;SDS011;23934;47.998;9.832;2024-02-14T05:30:55;15.82;;;4.07;;
38123;SDS011;23934;47.998;9.832;2024-02-14T05:33:22;8.38;;;3.35;;
38123;SDS011;23934;47.998;9.832;2024-02-14T05:35:48;8.52;;;3.00;;
38123;SDS011;23934;47.998;9.832;2024-02-14T05:38:14;15.43;;;2.90;;
38123;SDS011;23934;47.998;9.832;2024-02-14T05:40:40;3.10;;;1.98;;
38123;SDS011;23934;47.998;9.832;2024-02-14T05:43:08;6.20;;;2.70;;
38123;SDS011;23934;47.998;9.832;2024-02-14T05:45:34;6.47;;;2.30;;
38123;SDS011;23934;47.998;9.832;2024-02-14T05:48:00;14.27;;;2.50;;
38123;SDS011;23934;47.998;9.832;2024-02-14T05:50:27;10.75;;;3.22;;
38123;SDS011;23934;47.998;9.832;2024-02-14T05:52:53;8.43;;;3.30;;
38123;SDS011;23934;47.998;9.832;2024-02-14T05:55:19;14.13;;;3.97;;
38123;SDS011;23934;47.998;9.832;2024-02-14T05:57:45;13.82;;;3.67;;
38123;SDS011;23934;47.998;9.832;2024-02-14T06:00:11;8.85;;;3.63;;
38123;SDS011;23934;47.998;9.832;2024-02-14T06:02:37;12.55;;;3.47;;
38123;SDS011;23934;47.998;9.832;2024-02-14T06:05:05;10.45;;;4.00;;
38123;SDS011;23934;47.998;9.832;2024-02-14T06:07:34;11.00;;;4.28;;
38123;SDS011;23934;47.998;9.832;2024-02-14T06:10:00;11.15;;;3.58;;
38123;SDS011;23934;47.998;9.832;2024-02-14T06:12:26;7.85;;;3.35;;
38123;SDS011;23934;47.998;9.832;2024-02-14T06:14:52;10.65;;;3.33;;
38123;SDS011;23934;47.998;9.832;2024-02-14T06:17:18;7.22;;;3.40;;
38123;SDS011;23934;47.998;9.832;2024-02-14T06:19:44;4.38;;;2.15;;
38123;SDS011;23934;47.998;9.832;2024-02-14T06:22:11;10.77;;;3.85;;
38123;SDS011;23934;47.998;9.832;2024-02-14T06:24:36;7.15;;;2.80;;
38123;SDS011;23934;47.998;9.832;2024-02-14T06:27:03;9.00;;;3.15;;
38123;SDS011;23934;47.998;9.832;2024-02-14T06:29:29;4.03;;;1.80;;
38123;SDS011;23934;47.998;9.832;2024-02-14T06:31:54;7.60;;;2.72;;
38123;SDS011;23934;47.998;9.832;2024-02-14T06:34:20;12.38;;;3.20;;
38123;SDS011;23934;47.998;9.832;2024-02-14T06:36:47;16.35;;;3.80;;
38123;SDS011;23934;47.998;9.832;2024-02-14T06:39:13;18.48;;;4.50;;
38123;SDS011;23934;47.998;9.832;2024-02-14T06:41:39;4.53;;;1.98;;
38123;SDS011;23934;47.998;9.832;2024-02-14T06:44:05;2.80;;;1.60;;
38123;SDS011;23934;47.998;9.832;2024-02-14T06:46:31;6.28;;;2.60;;
38123;SDS011;23934;47.998;9.832;2024-02-14T06:48:57;6.70;;;1.83;;
38123;SDS011;23934;47.998;9.832;2024-02-14T06:51:23;8.32;;;2.17;;
38123;SDS011;23934;47.998;9.832;2024-02-14T06:53:49;7.22;;;2.42;;
38123;SDS011;23934;47.998;9.832;2024-02-14T06:56:16;6.32;;;2.50;;
38123;SDS011;23934;47.998;9.832;2024-02-14T06:58:42;5.35;;;2.92;;
38123;SDS011;23934;47.998;9.832;2024-02-14T07:01:08;5.10;;;2.65;;
38123;SDS011;23934;47.998;9.832;2024-02-14T07:03:36;5.07;;;2.08;;
38123;SDS011;23934;47.998;9.832;2024-02-14T07:06:02;4.65;;;2.08;;
38123;SDS011;23934;47.998;9.832;2024-02-14T07:08:29;6.57;;;2.03;;
38123;SDS011;23934;47.998;9.832;2024-02-14T07:10:55;5.63;;;2.08;;
38123;SDS011;23934;47.998;9.832;2024-02-14T07:13:21;12.57;;;2.80;;
38123;SDS011;23934;47.998;9.832;2024-02-14T07:15:47;6.03;;;2.22;;
38123;SDS011;23934;47.998;9.832;2024-02-14T07:18:13;4.63;;;2.17;;
38123;SDS011;23934;47.998;9.832;2024-02-14T07:20:39;7.03;;;2.60;;
38123;SDS011;23934;47.998;9.832;2024-02-14T07:23:05;4.05;;;1.80;;
38123;SDS011;23934;47.998;9.832;2024-02-14T07:25:31;10.80;;;2.55;;
38123;SDS011;23934;47.998;9.832;2024-02-14T07:27:57;7.07;;;2.78;;
38123;SDS011;23934;47.998;9.832;2024-02-14T07:30:23;5.13;;;1.95;;
38123;SDS011;23934;47.998;9.832;2024-02-14T07:32:49;3.78;;;1.63;;
38123;SDS011;23934;47.998;9.832;2024-02-14T07:35:16;4.00;;;1.95;;
38123;SDS011;23934;47.998;9.832;2024-02-14T07:37:42;10.07;;;2.42;;
38123;SDS011;23934;47.998;9.832;2024-02-14T07:40:09;5.88;;;2.28;;
38123;SDS011;23934;47.998;9.832;2024-02-14T07:42:35;9.23;;;2.15;;
38123;SDS011;23934;47.998;9.832;2024-02-14T07:45:01;3.42;;;1.45;;
38123;SDS011;23934;47.998;9.832;2024-02-14T07:47:28;4.45;;;1.67;;
38123;SDS011;23934;47.998;9.832;2024-02-14T07:49:54;5.63;;;2.03;;
38123;SDS011;23934;47.998;9.832;2024-02-14T07:52:22;6.28;;;2.05;;
38123;SDS011;23934;47.998;9.832;2024-02-14T07:54:51;10.63;;;2.22;;
38123;SDS011;23934;47.998;9.832;2024-02-14T07:57:18;7.88;;;2.28;;
38123;SDS011;23934;47.998;9.832;2024-02-14T07:59:44;9.30;;;2.47;;
38123;SDS011;23934;47.998;9.832;2024-02-14T08:02:10;8.20;;;2.13;;
38123;SDS011;23934;47.998;9.832;2024-02-14T08:04:35;5.70;;;2.83;;
38123;SDS011;23934;47.998;9.832;2024-02-14T08:07:01;7.45;;;2.33;;
38123;SDS011;23934;47.998;9.832;2024-02-14T08:09:27;4.68;;;2.50;;
38123;SDS011;23934;47.998;9.832;2024-02-14T08:11:55;7.70;;;2.17;;
38123;SDS011;23934;47.998;9.832;2024-02-14T08:14:21;4.75;;;1.85;;
38123;SDS011;23934;47.998;9.832;2024-02-14T08:16:47;8.80;;;2.88;;
38123;SDS011;23934;47.998;9.832;2024-02-14T08:19:13;10.30;;;2.17;;
38123;SDS011;23934;47.998;9.832;2024-02-14T08:21:40;6.38;;;1.98;;
38123;SDS011;23934;47.998;9.832;2024-02-14T08:24:06;7.53;;;2.22;;
38123;SDS011;23934;47.998;9.832;2024-02-14T08:26:32;3.15;;;1.40;;
38123;SDS011;23934;47.998;9.832;2024-02-14T08:28:58;5.63;;;1.77;;
38123;SDS011;23934;47.998;9.832;2024-02-14T08:31:25;6.80;;;2.38;;
38123;SDS011;23934;47.998;9.832;2024-02-14T08:33:51;4.22;;;1.98;;
38123;SDS011;23934;47.998;9.832;2024-02-14T08:36:18;7.53;;;2.30;;
38123;SDS011;23934;47.998;9.832;2024-02-14T08:38:44;4.97;;;1.58;;
38123;SDS011;23934;47.998;9.832;2024-02-14T08:41:10;6.88;;;1.70;;
38123;SDS011;23934;47.998;9.832;2024-02-14T08:43:36;3.40;;;1.73;;
38123;SDS011;23934;47.998;9.832;2024-02-14T08:46:02;5.68;;;1.60;;
38123;SDS011;23934;47.998;9.832;2024-02-14T08:48:28;3.10;;;1.55;;
38123;SDS011;23934;47.998;9.832;2024-02-14T08:50:59;3.83;;;1.75;;
38123;SDS011;23934;47.998;9.832;2024-02-14T08:53:25;3.75;;;1.58;;
38123;SDS011;23934;47.998;9.832;2024-02-14T08:55:51;6.05;;;2.00;;
38123;SDS011;23934;47.998;9.832;2024-02-14T08:58:17;4.18;;;1.75;;
38123;SDS011;23934;47.998;9.832;2024-02-14T09:00:43;6.25;;;2.13;;
38123;SDS011;23934;47.998;9.832;2024-02-14T09:03:09;4.97;;;1.63;;
38123;SDS011;23934;47.998;9.832;2024-02-14T09:05:35;5.35;;;1.98;;
38123;SDS011;23934;47.998;9.832;2024-02-14T09:08:02;3.67;;;1.58;;
38123;SDS011;23934;47.998;9.832;2024-02-14T09:10:28;3.40;;;1.40;;
38123;SDS011;23934;47.998;9.832;2024-02-14T09:12:54;4.18;;;1.50;;
38123;SDS011;23934;47.998;9.832;2024-02-14T09:15:20;4.72;;;1.90;;
38123;SDS011;23934;47.998;9.832;2024-02-14T09:17:46;4.18;;;1.80;;
38123;SDS011;23934;47.998;9.832;2024-02-14T09:20:12;4.47;;;1.55;;
38123;SDS011;23934;47.998;9.832;2024-02-14T09:22:39;6.50;;;1.80;;
38123;SDS011;23934;47.998;9.832;2024-02-14T09:25:06;3.95;;;1.50;;
38123;SDS011;23934;47.998;9.832;2024-02-14T09:27:34;3.10;;;1.45;;
38123;SDS011;23934;47.998;9.832;2024-02-14T09:30:00;6.68;;;1.50;;
38123;SDS011;23934;47.998;9.832;2024-02-14T09:32:28;2.53;;;1.30;;
38123;SDS011;23934;47.998;9.832;2024-02-14T09:34:54;2.22;;;1.58;;
38123;SDS011;23934;47.998;9.832;2024-02-14T09:37:20;28.73;;;10.43;;
38123;SDS011;23934;47.998;9.832;2024-02-14T09:39:46;6.18;;;2.53;;
38123;SDS011;23934;47.998;9.832;2024-02-14T09:42:13;3.10;;;1.73;;
38123;SDS011;23934;47.998;9.832;2024-02-14T09:44:39;7.75;;;2.10;;
38123;SDS011;23934;47.998;9.832;2024-02-14T09:47:05;4.70;;;1.90;;
38123;SDS011;23934;47.998;9.832;2024-02-14T09:49:32;6.90;;;2.35;;
38123;SDS011;23934;47.998;9.832;2024-02-14T09:52:01;6.78;;;3.05;;
38123;SDS011;23934;47.998;9.832;2024-02-14T09:54:27;7.00;;;2.60;;
38123;SDS011;23934;47.998;9.832;2024-02-14T09:56:55;4.47;;;1.70;;
38123;SDS011;23934;47.998;9.832;2024-02-14T09:59:22;2.92;;;1.65;;
38123;SDS011;23934;47.998;9.832;2024-02-14T10:01:49;5.35;;;1.63;;
38123;SDS011;23934;47.998;9.832;2024-02-14T10:04:16;4.55;;;1.90;;
38123;SDS011;23934;47.998;9.832;2024-02-14T10:06:43;3.17;;;1.83;;
38123;SDS011;23934;47.998;9.832;2024-02-14T10:09:09;4.47;;;2.25;;
38123;SDS011;23934;47.998;9.832;2024-02-14T10:11:36;3.47;;;1.83;;
38123;SDS011;23934;47.998;9.832;2024-02-14T10:14:04;3.30;;;1.45;;
38123;SDS011;23934;47.998;9.832;2024-02-14T10:16:34;2.50;;;1.45;;
38123;SDS011;23934;47.998;9.832;2024-02-14T10:19:00;7.68;;;1.45;;
38123;SDS011;23934;47.998;9.832;2024-02-14T10:21:27;2.53;;;1.60;;
38123;SDS011;23934;47.998;9.832;2024-02-14T10:23:53;5.65;;;1.70;;
38123;SDS011;23934;47.998;9.832;2024-02-14T10:26:22;7.47;;;1.80;;
38123;SDS011;23934;47.998;9.832;2024-02-14T10:28:48;6.30;;;1.33;;
38123;SDS011;23934;47.998;9.832;2024-02-14T10:31:16;8.40;;;2.08;;
38123;SDS011;23934;47.998;9.832;2024-02-14T10:33:42;3.75;;;1.90;;
38123;SDS011;23934;47.998;9.832;2024-02-14T10:36:08;2.72;;;1.60;;
38123;SDS011;23934;47.998;9.832;2024-02-14T10:38:38;2.83;;;1.58;;
38123;SDS011;23934;47.998;9.832;2024-02-14T10:41:05;2.13;;;1.30;;
38123;SDS011;23934;47.998;9.832;2024-02-14T10:43:32;3.05;;;1.40;;
38123;SDS011;23934;47.998;9.832;2024-02-14T10:46:07;3.47;;;1.60;;
38123;SDS011;23934;47.998;9.832;2024-02-14T10:48:34;4.10;;;1.55;;
38123;SDS011;23934;47.998;9.832;2024-02-14T10:51:01;4.50;;;1.98;;
38123;SDS011;23934;47.998;9.832;2024-02-14T10:53:29;4.95;;;1.92;;
38123;SDS011;23934;47.998;9.832;2024-02-14T10:55:55;5.70;;;1.60;;
38123;SDS011;23934;47.998;9.832;2024-02-14T10:58:23;6.75;;;1.90;;
38123;SDS011;23934;47.998;9.832;2024-02-14T11:00:50;3.58;;;1.70;;
38123;SDS011;23934;47.998;9.832;2024-02-14T11:03:16;9.02;;;1.98;;
38123;SDS011;23934;47.998;9.832;2024-02-14T11:05:44;5.88;;;1.58;;
38123;SDS011;23934;47.998;9.832;2024-02-14T11:08:13;3.72;;;1.67;;
38123;SDS011;23934;47.998;9.832;2024-02-14T11:10:39;3.70;;;1.60;;
38123;SDS011;23934;47.998;9.832;2024-02-14T11:13:09;4.78;;;1.80;;
38123;SDS011;23934;47.998;9.832;2024-02-14T11:15:35;3.27;;;1.43;;
38123;SDS011;23934;47.998;9.832;2024-02-14T11:18:04;6.10;;;2.08;;
38123;SDS011;23934;47.998;9.832;2024-02-14T11:20:35;7.38;;;2.17;;
38123;SDS011;23934;47.998;9.832;2024-02-14T11:25:32;6.35;;;1.75;;
38123;SDS011;23934;47.998;9.832;2024-02-14T11:28:12;4.32;;;2.05;;
38123;SDS011;23934;47.998;9.832;2024-02-14T11:30:39;6.40;;;1.50;;
38123;SDS011;23934;47.998;9.832;2024-02-14T11:33:21;6.38;;;1.52;;
38123;SDS011;23934;47.998;9.832;2024-02-14T11:38:16;3.67;;;1.58;;
38123;SDS011;23934;47.998;9.832;2024-02-14T11:40:42;4.57;;;1.75;;
38123;SDS011;23934;47.998;9.832;2024-02-14T11:43:15;5.85;;;1.38;;
38123;SDS011;23934;47.998;9.832;2024-02-14T11:45:44;4.15;;;1.60;;
38123;SDS011;23934;47.998;9.832;2024-02-14T11:48:11;4.20;;;1.75;;
38123;SDS011;23934;47.998;9.832;2024-02-14T11:50:38;4.95;;;1.88;;
38123;SDS011;23934;47.998;9.832;2024-02-14T11:53:05;3.35;;;1.60;;
38123;SDS011;23934;47.998;9.832;2024-02-14T11:55:33;2.80;;;1.77;;
38123;SDS011;23934;47.998;9.832;2024-02-14T11:58:01;5.15;;;2.03;;
38123;SDS011;23934;47.998;9.832;2024-02-14T12:00:28;6.28;;;1.60;;
38123;SDS011;23934;47.998;9.832;2024-02-14T12:02:54;4.43;;;1.40;;
38123;SDS011;23934;47.998;9.832;2024-02-14T12:05:20;3.97;;;1.83;;
38123;SDS011;23934;47.998;9.832;2024-02-14T12:07:46;4.88;;;1.98;;
38123;SDS011;23934;47.998;9.832;2024-02-14T12:10:12;5.40;;;1.67;;
38123;SDS011;23934;47.998;9.832;2024-02-14T12:12:38;6.28;;;1.50;;
38123;SDS011;23934;47.998;9.832;2024-02-14T12:15:04;8.93;;;1.83;;
38123;SDS011;23934;47.998;9.832;2024-02-14T12:17:31;4.70;;;1.77;;
38123;SDS011;23934;47.998;9.832;2024-02-14T12:20:09;3.13;;;1.70;;
38123;SDS011;23934;47.998;9.832;2024-02-14T12:22:36;3.42;;;1.50;;
38123;SDS011;23934;47.998;9.832;2024-02-14T12:25:02;5.00;;;1.50;;
38123;SDS011;23934;47.998;9.832;2024-02-14T12:27:33;4.43;;;2.20;;
38123;SDS011;23934;47.998;9.832;2024-02-14T12:29:59;5.18;;;1.55;;
38123;SDS011;23934;47.998;9.832;2024-02-14T12:32:25;3.47;;;1.38;;
38123;SDS011;23934;47.998;9.832;2024-02-14T12:34:51;3.95;;;1.90;;
38123;SDS011;23934;47.998;9.832;2024-02-14T12:37:17;4.75;;;1.55;;
38123;SDS011;23934;47.998;9.832;2024-02-14T12:39:43;4.15;;;1.55;;
38123;SDS011;23934;47.998;9.832;2024-02-14T12:42:09;1.75;;;1.10;;
38123;SDS011;23934;47.998;9.832;2024-02-14T12:44:35;2.40;;;1.15;;
38123;SDS011;23934;47.998;9.832;2024-02-14T12:47:03;6.80;;;1.40;;
38123;SDS011;23934;47.998;9.832;2024-02-14T12:49:29;2.50;;;1.40;;
38123;SDS011;23934;47.998;9.832;2024-02-14T12:51:56;1.73;;;1.20;;
38123;SDS011;23934;47.998;9.832;2024-02-14T12:54:22;2.72;;;1.60;;
38123;SDS011;23934;47.998;9.832;2024-02-14T12:56:48;1.90;;;1.00;;
38123;SDS011;23934;47.998;9.832;2024-02-14T12:59:16;2.60;;;1.40;;
38123;SDS011;23934;47.998;9.832;2024-02-14T13:01:43;1.95;;;1.13;;
38123;SDS011;23934;47.998;9.832;2024-02-14T13:04:09;4.20;;;1.20;;
38123;SDS011;23934;47.998;9.832;2024-02-14T13:06:35;2.60;;;1.27;;
38123;SDS011;23934;47.998;9.832;2024-02-14T13:09:02;3.35;;;1.40;;
38123;SDS011;23934;47.998;9.832;2024-02-14T13:11:31;4.18;;;1.35;;
38123;SDS011;23934;47.998;9.832;2024-02-14T13:13:57;2.33;;;1.25;;
38123;SDS011;23934;47.998;9.832;2024-02-14T13:16:23;4.15;;;1.42;;
38123;SDS011;23934;47.998;9.832;2024-02-14T13:18:49;5.13;;;1.58;;
38123;SDS011;23934;47.998;9.832;2024-02-14T13:21:15;5.32;;;1.70;;
38123;SDS011;23934;47.998;9.832;2024-02-14T13:23:42;6.45;;;1.58;;
38123;SDS011;23934;47.998;9.832;2024-02-14T13:26:08;5.40;;;2.05;;
38123;SDS011;23934;47.998;9.832;2024-02-14T13:28:34;3.30;;;1.60;;
38123;SDS011;23934;47.998;9.832;2024-02-14T13:31:00;3.72;;;1.60;;
38123;SDS011;23934;47.998;9.832;2024-02-14T13:33:26;3.67;;;1.52;;
38123;SDS011;23934;47.998;9.832;2024-02-14T13:35:52;3.47;;;1.63;;
38123;SDS011;23934;47.998;9.832;2024-02-14T13:38:18;4.30;;;1.90;;
38123;SDS011;23934;47.998;9.832;2024-02-14T13:40:44;2.20;;;1.58;;
38123;SDS011;23934;47.998;9.832;2024-02-14T13:43:10;2.70;;;1.60;;
38123;SDS011;23934;47.998;9.832;2024-02-14T13:45:45;5.10;;;2.13;;
38123;SDS011;23934;47.998;9.832;2024-02-14T13:48:12;3.70;;;1.33;;
38123;SDS011;23934;47.998;9.832;2024-02-14T13:50:38;5.68;;;1.50;;
38123;SDS011;23934;47.998;9.832;2024-02-14T13:53:05;4.90;;;1.15;;
38123;SDS011;23934;47.998;9.832;2024-02-14T13:55:32;2.28;;;1.08;;
38123;SDS011;23934;47.998;9.832;2024-02-14T13:57:58;2.17;;;1.23;;
38123;SDS011;23934;47.998;9.832;2024-02-14T14:00:24;4.72;;;1.70;;
38123;SDS011;23934;47.998;9.832;2024-02-14T14:02:50;4.82;;;1.85;;
38123;SDS011;23934;47.998;9.832;2024-02-14T14:05:15;4.05;;;1.40;;
38123;SDS011;23934;47.998;9.832;2024-02-14T14:07:41;3.65;;;1.80;;
38123;SDS011;23934;47.998;9.832;2024-02-14T14:10:08;2.60;;;1.35;;
38123;SDS011;23934;47.998;9.832;2024-02-14T14:12:34;6.95;;;1.73;;
38123;SDS011;23934;47.998;9.832;2024-02-14T14:15:01;6.50;;;2.15;;
38123;SDS011;23934;47.998;9.832;2024-02-14T14:17:27;4.07;;;1.48;;
38123;SDS011;23934;47.998;9.832;2024-02-14T14:19:54;5.57;;;1.42;;
38123;SDS011;23934;47.998;9.832;2024-02-14T14:22:20;3.08;;;1.50;;
38123;SDS011;23934;47.998;9.832;2024-02-14T14:24:46;5.55;;;1.83;;
38123;SDS011;23934;47.998;9.832;2024-02-14T14:27:12;5.90;;;1.55;;
38123;SDS011;23934;47.998;9.832;2024-02-14T14:29:41;2.88;;;1.48;;
38123;SDS011;23934;47.998;9.832;2024-02-14T14:32:07;6.53;;;2.15;;
38123;SDS011;23934;47.998;9.832;2024-02-14T14:34:34;4.90;;;1.50;;
38123;SDS011;23934;47.998;9.832;2024-02-14T14:37:00;6.95;;;1.65;;
38123;SDS011;23934;47.998;9.832;2024-02-14T14:39:26;7.90;;;2.08;;
38123;SDS011;23934;47.998;9.832;2024-02-14T14:41:52;3.03;;;1.80;;
38123;SDS011;23934;47.998;9.832;2024-02-14T14:44:21;5.28;;;1.88;;
38123;SDS011;23934;47.998;9.832;2024-02-14T14:46:47;6.97;;;2.08;;